createdAt,value
2019-05-09T00:01:17.326Z,10.60
2019-05-09T00:03:46.675Z,9.57
2019-05-09T00:06:16.561Z,9.33
2019-05-09T00:08:45.739Z,11.47
2019-05-09T00:11:15.280Z,11.87
2019-05-09T00:13:45.009Z,11.47
2019-05-09T00:16:14.900Z,10.17
2019-05-09T00:18:44.616Z,13.23
2019-05-09T00:21:33.432Z,11.60
2019-05-09T00:24:03.699Z,11.70
2019-05-09T00:26:33.883Z,11.63
2019-05-09T00:29:08.400Z,10.43
2019-05-09T00:31:54.151Z,10.77
2019-05-09T00:34:33.819Z,8.97
2019-05-09T00:37:03.569Z,11.77
2019-05-09T00:39:34.069Z,12.37
2019-05-09T00:42:04.376Z,10.67
2019-05-09T00:44:35.777Z,10.17
2019-05-09T00:47:15.584Z,11.70
2019-05-09T00:49:45.548Z,9.23
2019-05-09T00:52:15.130Z,10.47
2019-05-09T00:54:44.740Z,8.33
2019-05-09T00:57:33.494Z,10.73
2019-05-09T01:00:05.847Z,8.33
2019-05-09T01:02:35.358Z,9.03
2019-05-09T01:05:05.322Z,8.37
2019-05-09T01:07:35.315Z,7.43
2019-05-09T01:10:24.249Z,7.57
2019-05-09T01:12:54.424Z,10.30
2019-05-09T01:15:24.149Z,8.87
2019-05-09T01:17:54.163Z,9.83
2019-05-09T01:20:26.221Z,8.80
2019-05-09T01:22:57.054Z,11.70
2019-05-09T01:25:27.265Z,9.73
2019-05-09T01:27:56.497Z,9.40
2019-05-09T01:30:26.082Z,11.77
2019-05-09T01:33:26.720Z,8.20
2019-05-09T01:35:56.213Z,9.67
2019-05-09T01:38:25.463Z,9.97
2019-05-09T01:40:55.425Z,9.53
2019-05-09T01:43:25.039Z,8.37
2019-05-09T01:45:54.956Z,10.53
2019-05-09T01:48:24.592Z,8.17
2019-05-09T01:50:54.825Z,7.67
2019-05-09T01:53:29.299Z,9.33
2019-05-09T01:55:59.676Z,11.93
2019-05-09T01:58:29.928Z,8.20
2019-05-09T02:00:59.495Z,8.87
2019-05-09T02:03:29.359Z,6.47
2019-05-09T02:05:58.601Z,7.10
2019-05-09T02:08:28.470Z,8.23
2019-05-09T02:10:57.940Z,6.20
2019-05-09T02:13:27.931Z,7.43
2019-05-09T02:16:24.243Z,7.77
2019-05-09T02:19:04.031Z,7.27
2019-05-09T02:21:34.521Z,7.87
2019-05-09T02:24:04.710Z,7.07
2019-05-09T02:26:33.896Z,6.63
2019-05-09T02:29:03.398Z,8.93
2019-05-09T02:31:35.401Z,8.03
2019-05-09T02:34:05.078Z,6.73
2019-05-09T02:36:34.840Z,8.67
2019-05-09T02:39:09.017Z,7.00
2019-05-09T02:41:39.094Z,7.70
2019-05-09T02:44:09.530Z,9.27
2019-05-09T02:46:44.903Z,7.37
2019-05-09T02:49:14.480Z,7.53
2019-05-09T02:51:44.793Z,8.70
2019-05-09T02:54:14.382Z,5.77
2019-05-09T02:56:44.332Z,9.17
2019-05-09T02:59:19.796Z,9.27
2019-05-09T03:02:19.632Z,11.43
2019-05-09T03:04:49.159Z,7.97
2019-05-09T03:07:20.233Z,8.47
2019-05-09T03:09:49.821Z,9.73
2019-05-09T03:12:30.481Z,11.33
2019-05-09T03:14:51.015Z,7.53
2019-05-09T03:17:20.952Z,8.50
2019-05-09T03:19:50.944Z,9.37
2019-05-09T03:22:21.299Z,7.87
2019-05-09T03:24:50.857Z,6.83
2019-05-09T03:27:28.784Z,9.33
2019-05-09T03:30:00.656Z,11.00
2019-05-09T03:32:30.243Z,8.67
2019-05-09T03:34:59.505Z,8.17
2019-05-09T03:37:29.124Z,9.97
2019-05-09T03:39:59.311Z,8.37
2019-05-09T03:42:39.661Z,10.43
2019-05-09T03:45:00.455Z,7.73
2019-05-09T03:47:42.967Z,10.23
2019-05-09T03:50:17.643Z,8.77
2019-05-09T03:52:47.875Z,7.30
2019-05-09T03:55:38.368Z,9.67
2019-05-09T03:58:14.752Z,10.83
2019-05-09T04:00:44.683Z,8.83
2019-05-09T04:03:14.629Z,13.20
2019-05-09T04:05:55.488Z,7.83
2019-05-09T04:08:18.585Z,7.10
2019-05-09T04:10:51.943Z,8.73
2019-05-09T04:13:23.750Z,9.47
2019-05-09T04:15:53.306Z,9.80
2019-05-09T04:18:22.917Z,9.07
2019-05-09T04:20:52.828Z,12.67
2019-05-09T04:23:22.746Z,9.43
2019-05-09T04:26:17.703Z,12.40
2019-05-09T04:28:47.772Z,10.13
2019-05-09T04:31:17.884Z,11.43
2019-05-09T04:33:47.389Z,11.87
2019-05-09T04:36:19.135Z,13.17
2019-05-09T04:38:49.201Z,12.40
2019-05-09T04:41:23.882Z,12.47
2019-05-09T04:43:50.051Z,12.60
2019-05-09T04:46:24.110Z,11.53
2019-05-09T04:48:54.102Z,12.00
2019-05-09T04:51:22.977Z,12.40
2019-05-09T04:53:52.866Z,11.80
2019-05-09T04:56:29.812Z,13.67
2019-05-09T04:58:59.432Z,11.93
2019-05-09T05:01:47.764Z,15.77
2019-05-09T05:04:18.744Z,14.47
2019-05-09T05:06:48.256Z,11.80
2019-05-09T05:09:21.183Z,13.93
2019-05-09T05:11:49.213Z,13.00
2019-05-09T05:14:22.077Z,13.80
2019-05-09T05:16:55.357Z,12.63
2019-05-09T05:19:25.477Z,13.90
2019-05-09T05:21:58.360Z,15.93
2019-05-09T05:24:41.870Z,15.37
2019-05-09T05:27:11.541Z,16.43
2019-05-09T05:29:41.208Z,13.97
2019-05-09T05:32:17.673Z,17.97
2019-05-09T05:35:23.215Z,16.37
2019-05-09T05:37:52.411Z,19.57
2019-05-09T05:40:21.712Z,19.63
2019-05-09T05:42:51.776Z,20.27
2019-05-09T05:45:22.082Z,16.13
2019-05-09T05:48:01.539Z,20.33
2019-05-09T05:50:30.846Z,15.70
2019-05-09T05:53:01.099Z,22.60
2019-05-09T05:55:30.750Z,17.87
2019-05-09T05:58:00.708Z,15.93
2019-05-09T06:00:30.348Z,17.43
2019-05-09T06:02:59.701Z,17.93
2019-05-09T06:05:30.253Z,19.77
2019-05-09T06:08:00.295Z,18.20
2019-05-09T06:10:30.003Z,15.90
2019-05-09T06:12:59.898Z,17.00
2019-05-09T06:15:30.209Z,15.47
2019-05-09T06:17:59.602Z,16.97
2019-05-09T06:20:28.861Z,16.60
2019-05-09T06:22:59.255Z,19.10
2019-05-09T06:25:30.465Z,16.20
2019-05-09T06:28:00.259Z,17.73
2019-05-09T06:30:30.411Z,19.87
2019-05-09T06:33:04.245Z,16.23
2019-05-09T06:35:32.353Z,21.90
2019-05-09T06:38:01.916Z,19.43
2019-05-09T06:40:31.710Z,16.90
2019-05-09T06:43:18.360Z,17.63
2019-05-09T06:46:07.939Z,16.97
2019-05-09T06:48:37.937Z,16.73
2019-05-09T06:51:07.733Z,17.33
2019-05-09T06:53:38.166Z,18.10
2019-05-09T06:56:07.795Z,15.20
2019-05-09T06:58:38.354Z,14.63
2019-05-09T07:01:29.839Z,14.97
2019-05-09T07:04:05.160Z,16.37
2019-05-09T07:06:59.121Z,16.27
2019-05-09T07:09:47.919Z,16.90
2019-05-09T07:12:18.125Z,16.47
2019-05-09T07:14:48.870Z,15.03
2019-05-09T07:17:18.881Z,14.37
2019-05-09T07:19:49.038Z,16.17
2019-05-09T07:22:39.205Z,15.90
2019-05-09T07:25:28.138Z,16.73
2019-05-09T07:27:58.655Z,14.93
2019-05-09T07:30:48.093Z,17.53
2019-05-09T07:33:23.795Z,19.60
2019-05-09T07:35:53.827Z,20.90
2019-05-09T07:38:30.631Z,17.17
2019-05-09T07:41:00.832Z,17.73
2019-05-09T07:43:30.819Z,17.67
2019-05-09T07:46:17.725Z,15.97
2019-05-09T07:48:48.387Z,16.50
2019-05-09T07:51:18.181Z,17.13
2019-05-09T07:53:48.309Z,21.23
2019-05-09T07:56:18.657Z,16.57
2019-05-09T07:58:48.549Z,18.50
2019-05-09T08:01:19.091Z,19.57
2019-05-09T08:03:49.106Z,18.67
2019-05-09T08:06:19.172Z,20.03
2019-05-09T08:08:48.849Z,17.13
2019-05-09T08:11:19.075Z,18.97
2019-05-09T08:13:48.845Z,18.47
2019-05-09T08:16:18.746Z,17.27
2019-05-09T08:18:48.794Z,16.93
2019-05-09T08:21:19.010Z,16.67
2019-05-09T08:23:49.064Z,17.60
2019-05-09T08:26:19.107Z,15.77
2019-05-09T08:28:49.394Z,18.30
2019-05-09T08:31:19.307Z,16.23
2019-05-09T08:33:49.229Z,16.13
2019-05-09T08:36:20.189Z,16.43
2019-05-09T08:38:50.044Z,17.17
2019-05-09T08:41:19.297Z,14.90
2019-05-09T08:43:48.579Z,14.67
2019-05-09T08:46:18.389Z,15.57
2019-05-09T08:48:48.471Z,13.97
2019-05-09T08:51:36.618Z,13.53
2019-05-09T08:53:59.412Z,14.17
2019-05-09T08:56:29.338Z,14.67
2019-05-09T08:59:01.976Z,13.30
2019-05-09T09:01:50.565Z,13.40
2019-05-09T09:04:02.144Z,12.40
2019-05-09T09:06:31.767Z,14.27
2019-05-09T09:09:01.703Z,14.27
2019-05-09T09:11:31.002Z,13.30
2019-05-09T09:14:01.348Z,15.20
2019-05-09T09:16:31.624Z,14.23
2019-05-09T09:19:01.284Z,15.93
2019-05-09T09:21:31.152Z,14.77
2019-05-09T09:24:00.384Z,13.83
2019-05-09T09:26:29.645Z,14.17
2019-05-09T09:28:59.795Z,14.27
2019-05-09T09:31:29.132Z,14.63
2019-05-09T09:33:58.622Z,15.30
2019-05-09T09:36:28.457Z,15.47
2019-05-09T09:38:58.739Z,14.83
2019-05-09T09:41:28.904Z,16.23
2019-05-09T09:43:58.491Z,14.00
2019-05-09T09:46:28.732Z,17.10
2019-05-09T09:48:58.917Z,16.83
2019-05-09T09:51:28.659Z,16.60
2019-05-09T09:53:58.529Z,16.17
2019-05-09T09:56:28.376Z,15.63
2019-05-09T09:59:12.540Z,16.13
2019-05-09T10:01:43.977Z,17.37
2019-05-09T10:04:23.964Z,17.83
2019-05-09T10:06:50.773Z,17.60
2019-05-09T10:09:19.544Z,21.70
2019-05-09T10:11:49.389Z,21.77
2019-05-09T10:14:28.325Z,21.77
2019-05-09T10:17:17.927Z,22.10
2019-05-09T10:20:01.593Z,19.37
2019-05-09T10:22:31.120Z,19.80
2019-05-09T10:25:00.432Z,21.63
2019-05-09T10:27:30.246Z,20.40
2019-05-09T10:30:00.280Z,17.57
2019-05-09T10:32:29.782Z,18.20
2019-05-09T10:34:59.044Z,22.20
2019-05-09T10:37:29.068Z,19.57
2019-05-09T10:39:58.832Z,19.63
2019-05-09T10:42:51.529Z,19.47
2019-05-09T10:45:40.719Z,19.90
2019-05-09T10:48:09.895Z,17.40
2019-05-09T10:50:44.709Z,21.90
2019-05-09T10:53:10.560Z,21.47
2019-05-09T10:55:40.491Z,17.63
2019-05-09T10:58:10.088Z,17.70
2019-05-09T11:00:39.778Z,21.97
2019-05-09T11:03:09.478Z,18.87
2019-05-09T11:05:39.112Z,17.23
2019-05-09T11:08:08.634Z,15.77
2019-05-09T11:10:39.780Z,15.37
2019-05-09T11:13:09.711Z,14.97
2019-05-09T11:15:39.740Z,16.40
2019-05-09T11:18:09.262Z,16.30
2019-05-09T11:20:39.350Z,15.87
2019-05-09T11:23:09.552Z,16.37
2019-05-09T11:25:39.785Z,16.10
2019-05-09T11:28:14.743Z,15.83
2019-05-09T11:30:41.683Z,18.07
2019-05-09T11:33:11.571Z,16.53
2019-05-09T11:35:41.815Z,16.63
2019-05-09T11:38:11.986Z,16.77
2019-05-09T11:40:42.182Z,18.70
2019-05-09T11:43:12.084Z,16.80
2019-05-09T11:45:41.674Z,18.97
2019-05-09T11:48:11.612Z,19.53
2019-05-09T11:50:41.524Z,17.10
2019-05-09T11:53:11.239Z,19.53
2019-05-09T11:55:43.009Z,20.17
2019-05-09T11:58:11.792Z,16.97
2019-05-09T12:00:41.909Z,17.83
2019-05-09T12:03:11.471Z,15.93
2019-05-09T12:05:41.182Z,15.60
2019-05-09T12:08:10.756Z,16.77
2019-05-09T12:10:40.414Z,16.93
2019-05-09T12:13:11.215Z,15.07
2019-05-09T12:15:40.924Z,18.20
2019-05-09T12:18:11.594Z,15.97
2019-05-09T12:20:42.162Z,16.10
2019-05-09T12:23:12.276Z,16.17
2019-05-09T12:25:42.218Z,15.17
2019-05-09T12:28:11.467Z,19.00
2019-05-09T12:30:42.064Z,18.73
2019-05-09T12:33:11.948Z,17.40
2019-05-09T12:35:41.398Z,17.10
2019-05-09T12:38:11.115Z,17.10
2019-05-09T12:40:40.759Z,19.40
2019-05-09T12:43:10.487Z,17.20
2019-05-09T12:45:39.762Z,16.77
2019-05-09T12:48:15.009Z,15.43
2019-05-09T12:50:40.431Z,16.77
2019-05-09T12:53:10.064Z,16.57
2019-05-09T12:55:39.973Z,17.60
2019-05-09T12:58:27.798Z,17.87
2019-05-09T13:00:58.460Z,20.37
2019-05-09T13:03:28.572Z,21.27
2019-05-09T13:05:58.810Z,19.20
2019-05-09T13:08:28.066Z,17.80
2019-05-09T13:10:58.392Z,19.27
2019-05-09T13:13:31.777Z,20.80
2019-05-09T13:16:19.141Z,18.23
2019-05-09T13:19:02.836Z,19.03
2019-05-09T13:21:33.289Z,20.60
2019-05-09T13:24:03.701Z,21.03
2019-05-09T13:26:33.700Z,23.73
2019-05-09T13:29:03.374Z,19.07
2019-05-09T13:31:34.754Z,20.73
2019-05-09T13:34:07.689Z,21.40
2019-05-09T13:36:36.935Z,20.57
2019-05-09T13:39:08.771Z,19.43
2019-05-09T13:41:39.045Z,23.33
2019-05-09T13:44:13.586Z,26.20
2019-05-09T13:46:40.593Z,22.73
2019-05-09T13:49:15.179Z,25.80
2019-05-09T13:51:49.977Z,22.23
2019-05-09T13:54:12.938Z,23.07
2019-05-09T13:56:43.113Z,27.23
2019-05-09T13:59:12.652Z,25.67
2019-05-09T14:01:42.576Z,26.20
2019-05-09T14:04:12.249Z,29.07
2019-05-09T14:06:42.179Z,24.57
2019-05-09T14:09:11.793Z,27.40
2019-05-09T14:11:41.662Z,30.10
2019-05-09T14:14:12.254Z,27.07
2019-05-09T14:16:42.472Z,30.00
2019-05-09T14:19:29.913Z,25.87
2019-05-09T14:21:43.143Z,29.87
2019-05-09T14:24:16.634Z,35.03
2019-05-09T14:26:43.805Z,29.27
2019-05-09T14:29:13.827Z,30.43
2019-05-09T14:31:43.503Z,29.77
2019-05-09T14:34:13.108Z,28.63
2019-05-09T14:36:45.775Z,30.70
2019-05-09T14:39:14.769Z,33.67
2019-05-09T14:41:47.091Z,37.13
2019-05-09T14:44:17.922Z,40.43
2019-05-09T14:46:48.203Z,41.93
2019-05-09T14:49:17.952Z,41.07
2019-05-09T14:51:50.050Z,41.07
2019-05-09T14:54:19.299Z,46.70
2019-05-09T14:56:49.037Z,50.60
2019-05-09T14:59:18.837Z,51.53
2019-05-09T15:01:49.621Z,46.50
2019-05-09T15:04:19.628Z,43.63
2019-05-09T15:06:49.854Z,42.17
2019-05-09T15:09:19.531Z,38.33
2019-05-09T15:11:49.175Z,40.53
2019-05-09T15:14:18.934Z,39.77
2019-05-09T15:16:48.825Z,36.47
2019-05-09T15:19:18.382Z,40.23
2019-05-09T15:21:49.044Z,33.70
2019-05-09T15:24:19.445Z,34.97
2019-05-09T15:26:49.014Z,37.40
2019-05-09T15:29:18.666Z,37.97
2019-05-09T15:31:54.543Z,42.90
2019-05-09T15:34:19.676Z,42.40
2019-05-09T15:36:49.664Z,42.70
2019-05-09T15:39:19.652Z,44.17
2019-05-09T15:41:49.311Z,47.30
2019-05-09T15:44:19.281Z,44.83
2019-05-09T15:46:53.191Z,40.20
2019-05-09T15:49:23.025Z,35.23
2019-05-09T15:51:53.011Z,39.60
2019-05-09T15:54:22.891Z,31.77
2019-05-09T15:56:52.377Z,30.03
2019-05-09T15:59:22.621Z,26.80
2019-05-09T16:01:51.970Z,32.23
2019-05-09T16:04:21.955Z,35.60
2019-05-09T16:06:52.293Z,27.77
2019-05-09T16:09:22.258Z,36.27
2019-05-09T16:11:52.339Z,34.80
2019-05-09T16:14:21.891Z,35.33
2019-05-09T16:16:51.184Z,31.63
2019-05-09T16:19:20.657Z,39.60
2019-05-09T16:21:50.665Z,42.93
2019-05-09T16:24:20.051Z,38.93
2019-05-09T16:26:50.068Z,30.53
2019-05-09T16:29:19.726Z,44.23
2019-05-09T16:31:49.446Z,32.27
2019-05-09T16:34:19.647Z,26.47
2019-05-09T16:36:49.286Z,27.77
2019-05-09T16:39:18.970Z,25.30
2019-05-09T16:41:49.027Z,23.57
2019-05-09T16:44:18.808Z,27.40
2019-05-09T16:46:49.708Z,25.23
2019-05-09T16:49:20.232Z,27.77
2019-05-09T16:51:50.491Z,24.90
2019-05-09T16:54:41.260Z,22.37
2019-05-09T16:57:11.298Z,21.33
2019-05-09T16:59:40.607Z,26.37
2019-05-09T17:02:21.792Z,54.13
2019-05-09T17:04:41.931Z,32.60
2019-05-09T17:07:12.717Z,33.27
2019-05-09T17:09:44.388Z,28.57
2019-05-09T17:12:14.694Z,31.40
2019-05-09T17:14:44.396Z,32.70
2019-05-09T17:17:13.794Z,33.60
2019-05-09T17:19:43.044Z,36.30
2019-05-09T17:22:19.811Z,48.03
2019-05-09T17:24:50.826Z,46.90
2019-05-09T17:27:20.545Z,40.10
2019-05-09T17:29:50.135Z,37.83
2019-05-09T17:32:19.674Z,31.93
2019-05-09T17:34:50.048Z,32.43
2019-05-09T17:37:20.567Z,32.30
2019-05-09T17:39:50.978Z,32.10
2019-05-09T17:42:21.101Z,32.57
2019-05-09T17:44:51.194Z,31.77
2019-05-09T17:47:20.582Z,32.63
2019-05-09T17:49:50.287Z,32.20
2019-05-09T17:52:20.756Z,36.77
2019-05-09T17:54:51.128Z,33.17
2019-05-09T17:57:21.416Z,36.53
2019-05-09T17:59:51.119Z,34.17
2019-05-09T18:02:21.436Z,36.43
2019-05-09T18:04:51.196Z,37.53
2019-05-09T18:07:20.554Z,38.33
2019-05-09T18:09:49.840Z,37.30
2019-05-09T18:12:19.473Z,35.57
2019-05-09T18:14:49.503Z,38.43
2019-05-09T18:17:19.888Z,35.53
2019-05-09T18:19:49.531Z,36.80
2019-05-09T18:22:19.263Z,33.97
2019-05-09T18:24:48.905Z,38.47
2019-05-09T18:27:18.965Z,35.80
2019-05-09T18:29:48.648Z,35.80
2019-05-09T18:32:27.613Z,37.67
2019-05-09T18:35:08.972Z,38.23
2019-05-09T18:37:38.576Z,35.50
2019-05-09T18:40:09.003Z,39.13
2019-05-09T18:42:38.729Z,39.33
2019-05-09T18:45:08.109Z,35.13
2019-05-09T18:47:37.442Z,38.53
2019-05-09T18:50:07.512Z,39.30
2019-05-09T18:52:37.180Z,40.90
2019-05-09T18:55:07.887Z,36.40
2019-05-09T18:57:37.956Z,34.50
2019-05-09T19:00:08.313Z,36.73
2019-05-09T19:02:37.673Z,36.50
2019-05-09T19:05:08.010Z,40.23
2019-05-09T19:07:37.991Z,40.33
2019-05-09T19:10:08.221Z,37.43
2019-05-09T19:12:37.525Z,39.70
2019-05-09T19:15:08.408Z,39.67
2019-05-09T19:18:14.761Z,43.80
2019-05-09T19:20:55.378Z,41.37
2019-05-09T19:23:25.145Z,51.90
2019-05-09T19:25:54.934Z,52.43
2019-05-09T19:28:24.976Z,59.30
2019-05-09T19:30:54.364Z,59.40
2019-05-09T19:33:23.967Z,54.87
2019-05-09T19:35:54.254Z,58.10
2019-05-09T19:38:23.957Z,52.67
2019-05-09T19:40:54.040Z,47.77
2019-05-09T19:43:23.753Z,54.80
2019-05-09T19:45:53.760Z,52.17
2019-05-09T19:48:23.100Z,50.30
2019-05-09T19:50:52.776Z,43.53
2019-05-09T19:53:22.671Z,48.47
2019-05-09T19:55:52.049Z,48.83
2019-05-09T19:58:22.019Z,45.90
2019-05-09T20:00:52.340Z,49.50
2019-05-09T20:03:22.072Z,45.73
2019-05-09T20:05:51.800Z,50.67
2019-05-09T20:08:21.521Z,44.77
2019-05-09T20:11:16.603Z,45.70
2019-05-09T20:14:03.648Z,49.07
2019-05-09T20:16:35.276Z,50.53
2019-05-09T20:19:04.586Z,49.97
2019-05-09T20:21:34.426Z,51.63
2019-05-09T20:24:03.828Z,47.90
2019-05-09T20:26:33.911Z,52.03
2019-05-09T20:29:04.647Z,53.53
2019-05-09T20:31:34.076Z,56.37
2019-05-09T20:34:04.021Z,52.03
2019-05-09T20:36:33.748Z,53.90
2019-05-09T20:39:04.632Z,56.80
2019-05-09T20:41:34.065Z,56.00
2019-05-09T20:44:04.714Z,59.50
2019-05-09T20:46:34.930Z,57.43
2019-05-09T20:49:04.455Z,59.23
2019-05-09T20:51:34.706Z,54.20
2019-05-09T20:54:19.733Z,60.37
2019-05-09T20:56:35.705Z,58.10
2019-05-09T20:59:05.969Z,58.07
2019-05-09T21:01:36.097Z,55.80
2019-05-09T21:04:06.136Z,55.73
2019-05-09T21:06:36.476Z,60.60
2019-05-09T21:09:07.512Z,60.90
2019-05-09T21:11:37.917Z,60.23
2019-05-09T21:14:08.384Z,56.83
2019-05-09T21:16:39.035Z,61.27
2019-05-09T21:19:08.443Z,69.33
2019-05-09T21:21:38.323Z,64.07
2019-05-09T21:24:08.763Z,65.27
2019-05-09T21:26:38.634Z,62.00
2019-05-09T21:29:27.212Z,60.27
2019-05-09T21:31:57.284Z,65.37
2019-05-09T21:34:26.826Z,69.77
2019-05-09T21:36:56.432Z,69.10
2019-05-09T21:39:25.772Z,67.87
2019-05-09T21:41:55.302Z,67.70
2019-05-09T21:44:25.080Z,63.50
2019-05-09T21:46:54.717Z,68.77
2019-05-09T21:49:24.282Z,60.60
2019-05-09T21:51:53.792Z,62.03
2019-05-09T21:54:23.144Z,66.30
2019-05-09T21:56:52.392Z,66.77
2019-05-09T21:59:22.418Z,67.90
2019-05-09T22:01:52.405Z,69.93
2019-05-09T22:04:22.092Z,71.50
2019-05-09T22:06:51.746Z,84.47
2019-05-09T22:09:21.743Z,77.90
2019-05-09T22:11:52.121Z,91.17
2019-05-09T22:14:22.061Z,73.20
2019-05-09T22:16:51.329Z,91.10
2019-05-09T22:19:20.549Z,71.17
2019-05-09T22:21:49.769Z,73.20
2019-05-09T22:24:19.643Z,65.33
2019-05-09T22:26:49.869Z,70.20
2019-05-09T22:29:19.508Z,73.03
2019-05-09T22:31:49.115Z,67.90
2019-05-09T22:34:18.748Z,64.73
2019-05-09T22:36:48.236Z,66.10
2019-05-09T22:39:18.007Z,67.63
2019-05-09T22:41:47.946Z,67.07
2019-05-09T22:44:18.068Z,69.87
2019-05-09T22:46:48.312Z,66.87
2019-05-09T22:49:17.493Z,70.90
2019-05-09T22:51:47.136Z,66.60
2019-05-09T22:54:16.745Z,66.53
2019-05-09T22:56:46.638Z,68.50
2019-05-09T22:59:15.920Z,74.53
2019-05-09T23:01:45.540Z,65.57
2019-05-09T23:04:15.381Z,71.70
2019-05-09T23:06:45.206Z,66.90
2019-05-09T23:09:14.845Z,69.90
2019-05-09T23:11:44.436Z,68.40
2019-05-09T23:14:14.314Z,72.53
2019-05-09T23:16:44.305Z,65.67
2019-05-09T23:19:13.860Z,68.27
2019-05-09T23:21:44.037Z,76.47
2019-05-09T23:24:27.440Z,75.07
2019-05-09T23:26:46.798Z,76.57
2019-05-09T23:29:17.147Z,71.77
2019-05-09T23:32:05.718Z,67.10
2019-05-09T23:34:35.251Z,64.77
2019-05-09T23:37:04.440Z,68.87
2019-05-09T23:39:40.964Z,65.33
2019-05-09T23:42:10.923Z,72.90
2019-05-09T23:44:40.886Z,64.63
2019-05-09T23:47:10.493Z,61.60
2019-05-09T23:49:40.074Z,60.97
2019-05-09T23:52:10.029Z,55.57
2019-05-09T23:54:56.902Z,55.13
2019-05-09T23:57:43.879Z,56.13
